createdAt,value
2023-02-18T00:01:55.698Z,1.10
2023-02-18T00:04:24.016Z,1.75
2023-02-18T00:06:53.852Z,1.10
2023-02-18T00:09:22.229Z,1.08
2023-02-18T00:11:50.488Z,1.52
2023-02-18T00:14:18.840Z,1.10
2023-02-18T00:16:47.835Z,1.48
2023-02-18T00:19:22.813Z,1.52
2023-02-18T00:21:54.530Z,0.93
2023-02-18T00:24:22.934Z,1.30
2023-02-18T00:26:53.204Z,1.08
2023-02-18T00:29:22.455Z,1.38
2023-02-18T00:31:50.764Z,1.50
2023-02-18T00:34:19.104Z,1.20
2023-02-18T00:36:47.378Z,1.40
2023-02-18T00:39:17.281Z,0.90
2023-02-18T00:41:45.998Z,1.30
2023-02-18T00:44:14.294Z,1.20
2023-02-18T00:46:42.802Z,1.50
2023-02-18T00:49:11.450Z,1.40
2023-02-18T00:51:39.887Z,1.23
2023-02-18T00:54:08.192Z,1.05
2023-02-18T00:56:38.062Z,1.30
2023-02-18T00:59:11.958Z,1.20
2023-02-18T01:01:42.134Z,1.20
2023-02-18T01:04:10.443Z,1.10
2023-02-18T01:06:39.020Z,1.02
2023-02-18T01:09:07.767Z,1.20
2023-02-18T01:11:37.672Z,1.02
2023-02-18T01:14:08.215Z,1.60
2023-02-18T01:16:38.474Z,1.27
2023-02-18T01:19:07.175Z,1.45
2023-02-18T01:21:35.449Z,1.27
2023-02-18T01:24:03.730Z,1.20
2023-02-18T01:26:33.330Z,1.40
2023-02-18T01:29:03.117Z,1.02
2023-02-18T01:31:31.537Z,1.33
2023-02-18T01:33:59.928Z,1.27
2023-02-18T01:36:28.205Z,1.23
2023-02-18T01:38:56.467Z,1.27
2023-02-18T01:41:25.026Z,1.00
2023-02-18T01:44:13.710Z,1.20
2023-02-18T01:46:42.299Z,0.90
2023-02-18T01:49:13.231Z,1.00
2023-02-18T01:51:49.096Z,1.05
2023-02-18T01:54:23.510Z,1.20
2023-02-18T01:56:56.456Z,1.08
2023-02-18T01:59:29.796Z,1.30
2023-02-18T02:02:04.712Z,1.45
2023-02-18T02:04:33.139Z,1.60
2023-02-18T02:07:01.667Z,0.93
2023-02-18T02:09:33.026Z,1.42
2023-02-18T02:12:34.050Z,1.25
2023-02-18T02:15:22.970Z,1.25
2023-02-18T02:18:05.312Z,1.23
2023-02-18T02:21:11.753Z,1.23
2023-02-18T02:24:10.995Z,1.13
2023-02-18T02:27:12.388Z,1.00
2023-02-18T02:30:06.194Z,1.10
2023-02-18T02:33:09.534Z,0.88
2023-02-18T02:35:42.847Z,1.27
2023-02-18T02:38:26.147Z,1.30
2023-02-18T02:41:00.158Z,1.20
2023-02-18T02:43:38.728Z,1.08
2023-02-18T02:46:15.571Z,1.15
2023-02-18T02:48:49.961Z,1.02
2023-02-18T02:51:25.411Z,1.23
2023-02-18T02:54:00.424Z,1.40
2023-02-18T02:56:28.689Z,1.25
2023-02-18T02:59:02.130Z,1.42
2023-02-18T03:01:47.664Z,1.42
2023-02-18T03:04:32.494Z,1.27
2023-02-18T03:07:34.733Z,1.40
2023-02-18T03:10:31.354Z,1.23
2023-02-18T03:13:11.117Z,1.20
2023-02-18T03:15:49.365Z,1.33
2023-02-18T03:18:24.170Z,1.15
2023-02-18T03:20:56.967Z,1.00
2023-02-18T03:23:34.443Z,1.27
2023-02-18T03:26:04.147Z,0.93
2023-02-18T03:28:33.935Z,1.23
2023-02-18T03:31:07.301Z,1.20
2023-02-18T03:33:39.670Z,1.27
2023-02-18T03:36:15.029Z,1.23
2023-02-18T03:38:51.634Z,1.30
2023-02-18T03:41:19.991Z,1.40
2023-02-18T03:43:51.757Z,1.15
2023-02-18T03:46:23.067Z,1.50
2023-02-18T03:48:53.699Z,1.58
2023-02-18T03:51:27.698Z,1.60
2023-02-18T03:53:57.560Z,1.25
2023-02-18T03:56:26.870Z,1.27
2023-02-18T03:58:55.144Z,1.40
2023-02-18T04:01:23.588Z,1.50
2023-02-18T04:03:52.001Z,1.25
2023-02-18T04:06:20.426Z,1.48
2023-02-18T04:08:49.574Z,1.30
2023-02-18T04:11:19.653Z,1.25
2023-02-18T04:13:48.004Z,1.45
2023-02-18T04:16:16.798Z,1.20
2023-02-18T04:18:45.233Z,1.40
2023-02-18T04:21:13.586Z,1.00
2023-02-18T04:23:41.965Z,1.52
2023-02-18T04:26:10.658Z,1.02
2023-02-18T04:28:40.770Z,0.82
2023-02-18T04:31:09.259Z,1.05
2023-02-18T04:33:37.586Z,0.88
2023-02-18T04:36:06.648Z,0.80
2023-02-18T04:38:35.092Z,0.90
2023-02-18T04:41:03.342Z,1.13
2023-02-18T04:43:31.651Z,1.30
2023-02-18T04:46:01.701Z,0.75
2023-02-18T04:48:34.315Z,1.08
2023-02-18T04:51:04.387Z,0.80
2023-02-18T04:53:34.390Z,0.70
2023-02-18T04:56:02.783Z,0.70
2023-02-18T04:58:31.061Z,1.40
2023-02-18T05:01:03.040Z,0.93
2023-02-18T05:03:32.112Z,1.20
2023-02-18T05:06:00.839Z,0.90
2023-02-18T05:08:29.096Z,0.85
2023-02-18T05:10:57.450Z,1.10
2023-02-18T05:13:25.633Z,0.70
2023-02-18T05:15:54.525Z,1.23
2023-02-18T05:18:24.309Z,0.77
2023-02-18T05:20:52.804Z,1.10
2023-02-18T05:23:28.627Z,1.33
2023-02-18T05:25:57.155Z,1.00
2023-02-18T05:28:25.733Z,0.80
2023-02-18T05:30:54.012Z,1.30
2023-02-18T05:33:23.994Z,0.98
2023-02-18T05:35:52.322Z,1.00
2023-02-18T05:38:20.813Z,0.98
2023-02-18T05:40:49.562Z,0.80
2023-02-18T05:43:22.201Z,0.75
2023-02-18T05:45:50.437Z,0.90
2023-02-18T05:48:18.694Z,0.90
2023-02-18T05:50:48.657Z,0.70
2023-02-18T05:53:17.725Z,0.90
2023-02-18T05:55:46.155Z,0.70
2023-02-18T05:58:14.556Z,0.93
2023-02-18T06:00:42.783Z,1.27
2023-02-18T06:03:11.061Z,1.27
2023-02-18T06:05:39.504Z,1.13
2023-02-18T06:08:09.243Z,1.13
2023-02-18T06:10:37.585Z,1.05
2023-02-18T06:13:05.879Z,0.70
2023-02-18T06:15:34.200Z,0.88
2023-02-18T06:18:02.608Z,1.42
2023-02-18T06:20:30.933Z,0.63
2023-02-18T06:22:59.208Z,0.82
2023-02-18T06:25:29.038Z,1.13
2023-02-18T06:27:57.326Z,0.88
2023-02-18T06:30:25.645Z,0.90
2023-02-18T06:32:56.137Z,0.90
2023-02-18T06:35:28.589Z,0.80
2023-02-18T06:37:58.530Z,0.65
2023-02-18T06:40:28.295Z,0.90
2023-02-18T06:42:56.927Z,0.65
2023-02-18T06:45:25.371Z,0.90
2023-02-18T06:47:53.784Z,1.08
2023-02-18T06:50:22.052Z,0.55
2023-02-18T06:52:50.388Z,0.85
2023-02-18T06:55:18.909Z,1.17
2023-02-18T06:57:48.621Z,1.08
2023-02-18T07:00:17.422Z,1.08
2023-02-18T07:02:45.651Z,1.10
2023-02-18T07:05:13.978Z,1.20
2023-02-18T07:07:42.367Z,0.95
2023-02-18T07:10:11.850Z,1.13
2023-02-18T07:12:40.263Z,0.70
2023-02-18T07:15:10.996Z,0.77
2023-02-18T07:17:39.393Z,0.70
2023-02-18T07:20:09.268Z,1.27
2023-02-18T07:22:37.618Z,0.80
2023-02-18T07:25:06.163Z,0.90
2023-02-18T07:27:34.407Z,0.63
2023-02-18T07:30:02.748Z,0.88
2023-02-18T07:32:32.512Z,1.33
2023-02-18T07:35:00.778Z,1.00
2023-02-18T07:37:29.279Z,0.95
2023-02-18T07:39:57.541Z,0.70
2023-02-18T07:42:30.285Z,1.23
2023-02-18T07:45:00.858Z,1.40
2023-02-18T07:47:32.226Z,1.23
2023-02-18T07:50:00.410Z,1.45
2023-02-18T07:52:28.774Z,1.13
2023-02-18T07:54:57.019Z,1.08
2023-02-18T07:57:25.318Z,1.23
2023-02-18T07:59:53.577Z,1.10
2023-02-18T08:02:23.996Z,1.30
2023-02-18T08:04:54.043Z,1.30
2023-02-18T08:07:24.318Z,1.15
2023-02-18T08:09:52.554Z,1.25
2023-02-18T08:12:20.853Z,1.17
2023-02-18T08:14:49.193Z,0.95
2023-02-18T08:17:18.221Z,1.10
2023-02-18T08:19:46.622Z,1.48
2023-02-18T08:22:30.772Z,1.40
2023-02-18T08:24:59.098Z,1.23
2023-02-18T08:27:27.335Z,1.60
2023-02-18T08:29:56.075Z,1.25
2023-02-18T08:32:24.389Z,1.10
2023-02-18T08:34:52.686Z,1.13
2023-02-18T08:37:20.909Z,0.98
2023-02-18T08:39:54.992Z,1.20
2023-02-18T08:42:25.848Z,1.40
2023-02-18T08:44:54.021Z,1.42
2023-02-18T08:48:18.071Z,1.35
2023-02-18T08:50:12.342Z,1.42
2023-02-18T08:52:43.006Z,1.20
2023-02-18T08:55:16.161Z,1.27
2023-02-18T08:57:44.695Z,1.33
2023-02-18T09:00:15.470Z,1.35
2023-02-18T09:02:44.158Z,1.40
2023-02-18T09:05:13.954Z,1.27
2023-02-18T09:07:42.560Z,1.60
2023-02-18T09:10:15.619Z,1.20
2023-02-18T09:12:43.812Z,1.65
2023-02-18T09:15:12.190Z,1.55
2023-02-18T09:17:40.536Z,1.38
2023-02-18T09:20:10.128Z,1.20
2023-02-18T09:22:38.460Z,1.52
2023-02-18T09:25:07.795Z,1.20
2023-02-18T09:27:38.105Z,1.40
2023-02-18T09:30:07.762Z,1.30
2023-02-18T09:32:36.345Z,1.38
2023-02-18T09:35:05.591Z,1.50
2023-02-18T09:37:33.898Z,0.90
2023-02-18T09:40:02.175Z,1.05
2023-02-18T09:42:35.533Z,0.90
2023-02-18T09:45:08.419Z,1.00
2023-02-18T09:47:39.441Z,1.20
2023-02-18T09:50:14.093Z,1.05
2023-02-18T09:52:42.413Z,0.95
2023-02-18T09:55:20.999Z,0.98
2023-02-18T09:57:52.314Z,1.08
2023-02-18T10:00:29.984Z,1.35
2023-02-18T10:03:01.185Z,1.77
2023-02-18T10:05:31.790Z,1.40
2023-02-18T10:08:07.884Z,1.30
2023-02-18T10:10:41.861Z,1.60
2023-02-18T10:13:21.007Z,1.23
2023-02-18T10:15:52.673Z,1.15
2023-02-18T10:18:32.548Z,1.38
2023-02-18T10:21:10.807Z,1.10
2023-02-18T10:23:46.739Z,1.00
2023-02-18T10:26:19.687Z,0.75
2023-02-18T10:28:48.423Z,1.75
2023-02-18T10:31:24.966Z,1.25
2023-02-18T10:34:00.563Z,1.13
2023-02-18T10:36:35.811Z,1.52
2023-02-18T10:39:16.404Z,1.00
2023-02-18T10:41:53.787Z,1.30
2023-02-18T10:44:31.600Z,1.13
2023-02-18T10:47:12.429Z,1.30
2023-02-18T10:49:58.136Z,1.08
2023-02-18T10:52:30.182Z,0.98
2023-02-18T10:55:01.857Z,0.75
2023-02-18T10:57:30.174Z,1.00
2023-02-18T11:00:01.932Z,0.80
2023-02-18T11:02:33.408Z,1.13
2023-02-18T11:05:17.642Z,1.20
2023-02-18T11:07:49.420Z,1.02
2023-02-18T11:10:25.444Z,1.40
2023-02-18T11:12:58.828Z,1.35
2023-02-18T11:15:28.324Z,1.42
2023-02-18T11:18:02.263Z,1.05
2023-02-18T11:20:33.713Z,1.23
2023-02-18T11:23:17.954Z,1.15
2023-02-18T11:25:57.680Z,0.82
2023-02-18T11:28:45.431Z,1.55
2023-02-18T11:31:22.176Z,1.60
2023-02-18T11:33:54.462Z,1.40
2023-02-18T11:36:29.306Z,1.45
2023-02-18T11:38:59.362Z,2.92
2023-02-18T11:41:36.520Z,1.80
2023-02-18T11:44:07.442Z,1.90
2023-02-18T11:46:36.073Z,1.90
2023-02-18T11:49:23.785Z,1.45
2023-02-18T11:51:52.915Z,2.63
2023-02-18T11:54:30.286Z,2.97
2023-02-18T11:57:04.289Z,4.10
2023-02-18T11:59:36.372Z,3.58
2023-02-18T12:02:27.527Z,3.20
2023-02-18T12:05:05.639Z,4.28
2023-02-18T12:07:44.161Z,6.25
2023-02-18T12:10:22.339Z,3.08
2023-02-18T12:12:55.204Z,1.83
2023-02-18T12:15:30.655Z,1.63
2023-02-18T12:18:32.682Z,1.35
2023-02-18T12:21:16.019Z,1.30
2023-02-18T12:23:54.282Z,1.60
2023-02-18T12:26:31.674Z,1.17
2023-02-18T12:29:15.107Z,1.35
2023-02-18T12:32:01.230Z,1.58
2023-02-18T12:34:49.632Z,1.38
2023-02-18T12:37:52.494Z,1.13
2023-02-18T12:40:41.460Z,1.40
2023-02-18T12:43:20.389Z,1.13
2023-02-18T12:46:13.582Z,1.35
2023-02-18T12:49:01.717Z,0.88
2023-02-18T12:51:47.330Z,1.13
2023-02-18T12:54:40.642Z,1.08
2023-02-18T12:57:32.782Z,1.00
2023-02-18T13:00:32.857Z,0.90
2023-02-18T13:03:23.993Z,1.05
2023-02-18T13:05:59.280Z,1.23
2023-02-18T13:08:37.829Z,1.45
2023-02-18T13:11:26.439Z,1.27
2023-02-18T13:14:04.299Z,1.10
2023-02-18T13:16:34.308Z,0.95
2023-02-18T13:19:08.866Z,1.30
2023-02-18T13:21:41.147Z,1.20
2023-02-18T13:24:14.049Z,1.00
2023-02-18T13:26:48.282Z,1.05
2023-02-18T13:29:25.989Z,1.02
2023-02-18T13:32:03.448Z,1.23
2023-02-18T13:34:37.230Z,1.83
2023-02-18T13:37:13.224Z,7.88
2023-02-18T13:39:50.734Z,5.80
2023-02-18T13:42:36.996Z,6.95
2023-02-18T13:45:32.971Z,8.48
2023-02-18T13:48:02.112Z,6.22
2023-02-18T13:50:34.027Z,7.18
2023-02-18T13:53:22.855Z,6.75
2023-02-18T13:55:56.301Z,11.93
2023-02-18T13:58:30.865Z,1.38
2023-02-18T14:01:03.572Z,1.13
2023-02-18T14:03:52.634Z,0.73
2023-02-18T14:06:23.112Z,0.90
2023-02-18T14:08:52.304Z,0.52
2023-02-18T14:11:54.969Z,1.00
2023-02-18T14:14:40.865Z,0.43
2023-02-18T14:17:38.994Z,0.52
2023-02-18T14:20:33.573Z,0.88
2023-02-18T14:23:02.140Z,0.85
2023-02-18T14:25:38.393Z,1.00
2023-02-18T14:28:44.955Z,0.70
2023-02-18T14:31:45.056Z,0.90
2023-02-18T14:34:35.786Z,0.88
2023-02-18T14:37:23.486Z,0.38
2023-02-18T14:40:02.629Z,0.80
2023-02-18T14:42:39.644Z,0.80
2023-02-18T14:45:25.786Z,0.85
2023-02-18T14:48:18.565Z,1.00
2023-02-18T14:50:50.556Z,0.90
2023-02-18T14:53:24.085Z,0.52
2023-02-18T14:55:55.192Z,0.75
2023-02-18T14:58:31.645Z,0.35
2023-02-18T15:01:09.249Z,0.40
2023-02-18T15:03:43.003Z,0.60
2023-02-18T15:06:27.405Z,0.47
2023-02-18T15:08:55.793Z,0.75
2023-02-18T15:11:28.182Z,0.55
2023-02-18T15:13:56.551Z,0.68
2023-02-18T15:16:36.893Z,0.47
2023-02-18T15:19:14.820Z,1.15
2023-02-18T15:21:45.993Z,0.68
2023-02-18T15:24:27.326Z,0.70
2023-02-18T15:26:58.765Z,0.85
2023-02-18T15:29:29.176Z,0.68
2023-02-18T15:31:59.324Z,0.75
2023-02-18T15:34:39.712Z,0.60
2023-02-18T15:37:14.029Z,0.93
2023-02-18T15:39:44.065Z,0.82
2023-02-18T15:42:26.344Z,0.90
2023-02-18T15:44:58.081Z,0.90
2023-02-18T15:47:27.124Z,0.77
2023-02-18T15:50:02.504Z,0.80
2023-02-18T15:52:40.267Z,0.98
2023-02-18T15:55:13.690Z,0.57
2023-02-18T15:57:43.046Z,0.77
2023-02-18T16:00:20.365Z,0.88
2023-02-18T16:02:55.111Z,0.98
2023-02-18T16:05:36.328Z,0.80
2023-02-18T16:08:13.867Z,0.70
2023-02-18T16:10:49.029Z,0.90
2023-02-18T16:13:19.253Z,0.95
2023-02-18T16:15:50.068Z,1.30
2023-02-18T16:18:29.686Z,1.73
2023-02-18T16:21:02.853Z,1.05
2023-02-18T16:23:37.778Z,0.52
2023-02-18T16:26:22.254Z,1.10
2023-02-18T16:28:56.021Z,0.90
2023-02-18T16:31:28.286Z,1.83
2023-02-18T16:33:58.435Z,2.08
2023-02-18T16:36:28.555Z,1.85
2023-02-18T16:38:58.832Z,0.65
2023-02-18T16:41:27.299Z,1.33
2023-02-18T16:43:55.901Z,1.00
2023-02-18T16:46:25.568Z,1.10
2023-02-18T16:48:56.795Z,1.10
2023-02-18T16:51:32.432Z,1.35
2023-02-18T16:54:00.879Z,1.13
2023-02-18T16:56:33.685Z,1.08
2023-02-18T16:59:02.033Z,1.10
2023-02-18T17:01:32.198Z,0.90
2023-02-18T17:04:02.027Z,0.73
2023-02-18T17:06:32.098Z,1.00
2023-02-18T17:09:00.503Z,0.80
2023-02-18T17:11:35.332Z,0.70
2023-02-18T17:14:05.197Z,0.57
2023-02-18T17:16:33.658Z,1.13
2023-02-18T17:19:01.853Z,1.02
2023-02-18T17:21:31.652Z,0.80
2023-02-18T17:23:59.918Z,0.80
2023-02-18T17:26:30.828Z,0.98
2023-02-18T17:29:01.264Z,0.82
2023-02-18T17:31:32.026Z,0.98
2023-02-18T17:34:03.333Z,1.33
2023-02-18T17:36:39.712Z,1.13
2023-02-18T17:39:13.813Z,0.90
2023-02-18T17:41:44.352Z,0.90
2023-02-18T17:44:16.424Z,0.70
2023-02-18T17:46:44.863Z,0.88
2023-02-18T17:49:13.216Z,0.70
2023-02-18T17:51:43.676Z,0.73
2023-02-18T17:54:14.668Z,0.90
2023-02-18T17:56:43.856Z,0.80
2023-02-18T17:59:12.246Z,1.13
2023-02-18T18:01:45.092Z,0.43
2023-02-18T18:04:17.469Z,0.90
2023-02-18T18:06:47.747Z,1.08
2023-02-18T18:09:15.968Z,0.85
2023-02-18T18:11:44.405Z,1.05
2023-02-18T18:14:15.289Z,0.85
2023-02-18T18:16:43.503Z,0.85
2023-02-18T18:19:11.711Z,0.90
2023-02-18T18:21:40.153Z,1.00
2023-02-18T18:24:14.490Z,0.77
2023-02-18T18:26:43.136Z,0.73
2023-02-18T18:29:15.714Z,0.80
2023-02-18T18:31:44.434Z,1.20
2023-02-18T18:34:12.809Z,1.10
2023-02-18T18:36:41.370Z,1.08
2023-02-18T18:39:11.522Z,0.80
2023-02-18T18:41:39.746Z,1.10
2023-02-18T18:44:08.231Z,0.70
2023-02-18T18:46:36.579Z,1.15
2023-02-18T18:49:05.034Z,1.10
2023-02-18T18:51:34.098Z,0.80
2023-02-18T18:54:02.400Z,1.05
2023-02-18T18:56:32.132Z,0.93
2023-02-18T18:59:00.606Z,0.93
2023-02-18T19:01:29.417Z,1.00
2023-02-18T19:03:57.806Z,1.05
2023-02-18T19:06:26.158Z,1.00
2023-02-18T19:08:54.437Z,0.75
2023-02-18T19:11:22.682Z,0.90
2023-02-18T19:13:52.529Z,1.00
2023-02-18T19:16:23.157Z,0.70
2023-02-18T19:18:51.802Z,0.98
2023-02-18T19:21:20.255Z,0.88
2023-02-18T19:23:48.628Z,1.20
2023-02-18T19:26:17.862Z,0.63
2023-02-18T19:28:46.533Z,0.88
2023-02-18T19:31:16.715Z,0.85
2023-02-18T19:33:49.184Z,0.55
2023-02-18T19:36:24.647Z,1.10
2023-02-18T19:38:52.834Z,1.00
2023-02-18T19:41:21.258Z,0.88
2023-02-18T19:43:49.426Z,0.80
2023-02-18T19:46:20.061Z,0.50
2023-02-18T19:48:51.171Z,0.90
2023-02-18T19:51:19.654Z,0.90
2023-02-18T19:53:47.839Z,0.80
2023-02-18T19:56:16.190Z,0.82
2023-02-18T19:58:44.450Z,1.30
2023-02-18T20:01:13.631Z,1.40
2023-02-18T20:03:47.454Z,1.00
2023-02-18T20:06:19.254Z,1.25
2023-02-18T20:08:48.290Z,0.98
2023-02-18T20:11:16.629Z,0.90
2023-02-18T20:13:45.160Z,1.27
2023-02-18T20:16:13.768Z,1.13
2023-02-18T20:18:43.624Z,0.98
2023-02-18T20:21:13.073Z,0.88
2023-02-18T20:23:41.424Z,0.68
2023-02-18T20:26:10.308Z,1.15
2023-02-18T20:28:38.790Z,1.00
2023-02-18T20:31:08.235Z,1.40
2023-02-18T20:33:36.961Z,0.75
2023-02-18T20:36:08.736Z,1.20
2023-02-18T20:38:38.742Z,1.10
2023-02-18T20:41:07.810Z,0.90
2023-02-18T20:43:36.273Z,0.38
2023-02-18T20:46:05.329Z,0.63
2023-02-18T20:48:34.184Z,0.82
2023-02-18T20:51:10.683Z,0.93
2023-02-18T20:53:40.586Z,1.27
2023-02-18T20:56:09.848Z,1.05
2023-02-18T20:58:38.289Z,1.40
2023-02-18T21:01:08.562Z,0.80
2023-02-18T21:03:37.275Z,0.95
2023-02-18T21:06:09.260Z,1.00
2023-02-18T21:08:43.900Z,0.63
2023-02-18T21:11:21.146Z,0.90
2023-02-18T21:13:49.931Z,1.17
2023-02-18T21:16:19.951Z,1.02
2023-02-18T21:18:48.480Z,1.40
2023-02-18T21:21:19.932Z,0.85
2023-02-18T21:23:52.613Z,1.02
2023-02-18T21:26:24.866Z,0.90
2023-02-18T21:28:55.377Z,0.85
2023-02-18T21:31:25.795Z,1.13
2023-02-18T21:33:54.488Z,0.98
2023-02-18T21:36:24.954Z,0.80
2023-02-18T21:38:54.071Z,0.77
2023-02-18T21:41:22.522Z,0.60
2023-02-18T21:43:51.008Z,0.60
2023-02-18T21:46:25.703Z,0.80
2023-02-18T21:49:09.842Z,0.70
2023-02-18T21:52:02.008Z,0.73
2023-02-18T21:54:39.394Z,0.60
2023-02-18T21:57:10.640Z,0.63
2023-02-18T21:59:39.667Z,0.73
2023-02-18T22:02:10.116Z,0.55
2023-02-18T22:04:38.908Z,0.57
2023-02-18T22:07:08.997Z,0.68
2023-02-18T22:09:37.467Z,0.55
2023-02-18T22:12:06.982Z,0.60
2023-02-18T22:14:35.458Z,0.75
2023-02-18T22:17:03.763Z,0.75
2023-02-18T22:19:32.146Z,0.82
2023-02-18T22:22:00.602Z,0.60
2023-02-18T22:24:31.051Z,0.52
2023-02-18T22:27:01.550Z,0.50
2023-02-18T22:29:34.196Z,0.60
2023-02-18T22:32:03.368Z,0.90
2023-02-18T22:34:33.666Z,1.10
2023-02-18T22:37:02.064Z,0.80
2023-02-18T22:39:31.854Z,0.52
2023-02-18T22:42:00.209Z,0.68
2023-02-18T22:44:28.537Z,0.55
2023-02-18T22:46:57.796Z,0.93
2023-02-18T22:49:27.032Z,0.55
2023-02-18T22:51:56.105Z,0.40
2023-02-18T22:54:24.503Z,0.80
2023-02-18T22:56:55.340Z,0.60
2023-02-18T22:59:23.616Z,0.77
2023-02-18T23:01:55.343Z,0.75
2023-02-18T23:04:26.396Z,0.88
2023-02-18T23:06:56.194Z,0.55
2023-02-18T23:09:26.374Z,1.00
2023-02-18T23:11:58.172Z,0.70
2023-02-18T23:14:28.338Z,0.80
2023-02-18T23:17:18.065Z,0.50
2023-02-18T23:19:48.152Z,0.60
2023-02-18T23:22:19.106Z,0.70
2023-02-18T23:24:53.704Z,0.75
2023-02-18T23:27:24.555Z,0.60
2023-02-18T23:29:53.167Z,0.73
2023-02-18T23:32:21.883Z,0.82
2023-02-18T23:34:51.163Z,1.00
2023-02-18T23:37:39.496Z,0.70
2023-02-18T23:40:13.813Z,0.93
2023-02-18T23:42:43.682Z,0.80
2023-02-18T23:45:11.890Z,0.70
2023-02-18T23:47:42.294Z,0.77
2023-02-18T23:50:10.677Z,0.90
2023-02-18T23:52:39.016Z,0.60
2023-02-18T23:55:07.869Z,0.70
2023-02-18T23:57:36.267Z,0.60
